Time;durP1;ratioP1;P1;durP2;ratioP2;P2;SDS_P1;SDS_P2;PMS_P1;PMS_P2;Temp;Humidity;BMP_temperature;BMP_pressure;BME280_temperature;BME280_humidity;BME280_pressure;Samples;Min_cycle;Max_cycle;Signal;HPM_P1;HPM_P2
2021/06/15 00:01:02;;;;;;;8.68;4.90;;;;;;;14.84;62.60;95666.41;5051969;28;20040;-71
2021/06/15 00:03:27;;;;;;;8.38;4.47;;;;;;;14.86;63.04;95676.81;5033560;28;20029;-71
2021/06/15 00:05:53;;;;;;;5.65;4.45;;;;;;;14.91;63.10;95676.66;5071622;28;20028;-71
2021/06/15 00:08:18;;;;;;;5.30;4.80;;;;;;;14.75;62.92;95660.28;5071803;28;20029;-71
2021/06/15 00:10:44;;;;;;;8.80;5.25;;;;;;;14.82;63.58;95677.44;5072027;28;20037;-71
2021/06/15 00:13:10;;;;;;;5.38;4.95;;;;;;;14.83;63.78;95691.59;5053418;28;20090;-71
2021/06/15 00:15:37;;;;;;;6.18;4.60;;;;;;;14.80;63.76;95679.66;5066832;28;20389;-71
2021/06/15 00:18:03;;;;;;;5.55;4.93;;;;;;;14.74;64.16;95674.75;5048789;28;20032;-71
2021/06/15 00:20:29;;;;;;;6.97;5.47;;;;;;;14.66;64.13;95671.00;5050411;28;20029;-70
2021/06/15 00:22:55;;;;;;;5.13;4.60;;;;;;;14.61;64.29;95665.81;5051380;28;20120;-72
2021/06/15 00:25:20;;;;;;;6.82;5.03;;;;;;;14.55;64.36;95664.41;5042116;28;20038;-71
2021/06/15 00:27:48;;;;;;;5.30;4.65;;;;;;;14.63;64.59;95668.16;5031881;28;20072;-71
2021/06/15 00:30:16;;;;;;;5.82;4.70;;;;;;;14.68;64.70;95676.03;5031583;28;20052;-71
2021/06/15 00:32:42;;;;;;;4.60;4.00;;;;;;;14.68;64.85;95684.06;5026415;28;20098;-71
2021/06/15 00:35:08;;;;;;;6.22;4.45;;;;;;;14.59;64.77;95669.88;5066762;28;20044;-71
2021/06/15 00:37:33;;;;;;;6.28;4.70;;;;;;;14.49;64.88;95653.06;5060046;28;20406;-71
2021/06/15 00:39:58;;;;;;;5.97;5.15;;;;;;;14.47;64.74;95651.75;5058109;28;20043;-71
2021/06/15 00:42:24;;;;;;;7.30;4.90;;;;;;;14.51;64.92;95663.44;5071256;28;20111;-71
2021/06/15 00:44:50;;;;;;;5.28;4.78;;;;;;;14.62;65.05;95682.66;5055148;28;20416;-71
2021/06/15 00:47:16;;;;;;;5.63;5.03;;;;;;;14.37;64.50;95644.84;5071471;28;20183;-71
2021/06/15 00:49:42;;;;;;;5.80;4.68;;;;;;;14.54;64.83;95676.22;5053943;28;20029;-72
2021/06/15 00:52:08;;;;;;;8.40;5.15;;;;;;;14.26;64.66;95635.56;5071627;28;20078;-77
2021/06/15 00:54:34;;;;;;;4.95;4.55;;;;;;;14.04;64.41;95610.53;5072615;28;20097;-77
2021/06/15 00:57:00;;;;;;;9.77;4.70;;;;;;;14.40;64.67;95668.31;5074596;28;20420;-77
2021/06/15 00:59:25;;;;;;;4.75;4.35;;;;;;;14.32;64.35;95667.19;5072421;28;20043;-77
2021/06/15 01:01:50;;;;;;;6.85;4.28;;;;;;;14.11;64.33;95633.34;5054790;28;20123;-77
2021/06/15 01:04:17;;;;;;;6.75;4.38;;;;;;;14.23;64.35;95646.91;5070837;28;20036;-77
2021/06/15 01:06:55;;;;;;;5.00;4.07;;;;;;;14.31;64.17;95670.19;5054567;28;20090;-76
2021/06/15 01:09:33;;;;;;;5.05;3.78;;;;;;;14.26;63.94;95662.31;5072432;28;20024;-77
2021/06/15 01:12:26;;;;;;;4.30;3.90;;;;;;;14.22;64.27;95659.47;5074068;28;20028;-77
2021/06/15 01:15:15;;;;;;;5.50;4.18;;;;;;;14.17;64.16;95666.84;5072800;28;20037;-77
2021/06/15 01:18:02;;;;;;;5.43;4.13;;;;;;;14.12;63.83;95661.66;5054627;28;20044;-77
2021/06/15 01:20:35;;;;;;;4.78;3.80;;;;;;;14.10;64.03;95658.53;5060270;28;20861;-78
2021/06/15 01:23:07;;;;;;;6.13;3.83;;;;;;;14.08;64.06;95664.19;5070404;28;20035;-77
2021/06/15 01:25:47;;;;;;;8.35;3.70;;;;;;;14.07;63.96;95665.28;5072206;28;20394;-76
2021/06/15 01:28:36;;;;;;;4.57;4.10;;;;;;;14.01;63.87;95653.94;5072220;28;20119;-78
2021/06/15 01:31:06;;;;;;;4.68;4.15;;;;;;;14.01;63.88;95650.47;5071792;28;20041;-78
2021/06/15 01:33:40;;;;;;;5.85;4.10;;;;;;;13.93;63.91;95648.59;5065360;28;20114;-77
2021/06/15 01:36:08;;;;;;;4.10;3.80;;;;;;;13.96;64.00;95648.75;5065022;28;20494;-77
2021/06/15 01:38:51;;;;;;;4.20;3.80;;;;;;;13.88;64.07;95646.84;5071863;28;20067;-76
2021/06/15 01:41:25;;;;;;;5.70;4.18;;;;;;;13.80;64.11;95634.25;5053837;28;20410;-77
2021/06/15 01:43:56;;;;;;;4.55;3.88;;;;;;;13.84;64.08;95642.44;5071466;28;20120;-76
2021/06/15 01:46:27;;;;;;;5.50;3.80;;;;;;;13.87;63.94;95655.16;5071758;28;20037;-77
2021/06/15 01:49:03;;;;;;;5.63;4.15;;;;;;;13.66;64.18;95622.88;5063030;28;20048;-77
2021/06/15 01:51:31;;;;;;;4.45;4.05;;;;;;;13.66;63.65;95617.53;5057781;28;20012;-77
2021/06/15 01:54:00;;;;;;;5.90;4.00;;;;;;;13.50;64.21;95604.59;5073344;28;20017;-77
2021/06/15 01:56:30;;;;;;;4.78;4.30;;;;;;;13.70;64.47;95637.22;5071572;28;20499;-76
2021/06/15 01:58:57;;;;;;;4.35;3.95;;;;;;;13.65;64.54;95632.00;5053754;28;20127;-77
2021/06/15 02:01:26;;;;;;;5.20;4.15;;;;;;;13.59;64.69;95619.91;5071442;28;20510;-75
2021/06/15 02:03:53;;;;;;;5.88;4.00;;;;;;;13.64;64.88;95638.47;5062629;28;20037;-77
2021/06/15 02:06:22;;;;;;;7.05;4.72;;;;;;;13.55;64.84;95627.75;5033123;28;20078;-77
2021/06/15 02:08:50;;;;;;;4.57;3.63;;;;;;;13.50;65.00;95619.84;5053359;28;20111;-75
2021/06/15 02:11:17;;;;;;;7.22;4.47;;;;;;;13.49;65.24;95623.63;5051358;28;20118;-77
2021/06/15 02:13:45;;;;;;;4.80;4.32;;;;;;;13.41;65.15;95609.16;5050856;28;20052;-76
2021/06/15 02:16:11;;;;;;;5.40;4.40;;;;;;;13.48;65.45;95624.75;5051236;28;20079;-77
2021/06/15 02:18:40;;;;;;;4.72;4.10;;;;;;;13.40;65.61;95618.25;5050639;28;20114;-77
2021/06/15 02:21:09;;;;;;;7.43;4.78;;;;;;;13.36;65.29;95614.66;5072337;28;20409;-77
2021/06/15 02:23:35;;;;;;;5.15;4.75;;;;;;;13.32;65.58;95618.25;5070637;28;20032;-76
2021/06/15 02:26:05;;;;;;;7.43;4.07;;;;;;;13.29;65.58;95614.28;5070915;28;20470;-77
2021/06/15 02:28:30;;;;;;;10.40;4.07;;;;;;;13.24;65.26;95609.09;5071041;28;20146;-77
2021/06/15 02:30:59;;;;;;;7.25;4.00;;;;;;;13.22;65.39;95608.63;5070797;28;20432;-77
2021/06/15 02:33:30;;;;;;;6.30;4.43;;;;;;;13.18;65.68;95604.97;5067252;28;20024;-76
2021/06/15 02:36:03;;;;;;;4.32;3.92;;;;;;;13.22;65.58;95614.75;5052479;28;20059;-77
2021/06/15 02:38:37;;;;;;;5.63;4.32;;;;;;;13.14;65.79;95615.47;5049763;28;20441;-76
2021/06/15 02:41:12;;;;;;;4.75;4.07;;;;;;;13.29;65.89;95634.88;5050616;28;20026;-77
2021/06/15 02:43:40;;;;;;;8.10;4.18;;;;;;;13.27;66.05;95644.00;5033300;28;20394;-77
2021/06/15 02:46:08;;;;;;;4.32;3.85;;;;;;;13.25;66.03;95645.38;5049471;28;20063;-78
2021/06/15 02:48:36;;;;;;;7.05;4.82;;;;;;;13.21;66.19;95639.06;5050077;28;20033;-77
2021/06/15 02:51:04;;;;;;;4.82;4.28;;;;;;;13.12;66.30;95631.03;5071174;28;20025;-77
2021/06/15 02:54:02;;;;;;;10.43;4.53;;;;;;;13.07;66.27;95633.81;5052277;28;20112;-77
2021/06/15 02:56:30;;;;;;;7.20;4.72;;;;;;;13.10;66.64;95646.53;5070236;28;20043;-75
2021/06/15 02:58:56;;;;;;;10.65;4.72;;;;;;;13.12;66.50;95651.59;5070450;28;20049;-77
2021/06/15 03:01:21;;;;;;;5.80;4.57;;;;;;;12.96;66.33;95627.97;5070471;28;20082;-76
2021/06/15 03:03:46;;;;;;;7.63;4.70;;;;;;;13.01;66.20;95632.38;5064793;28;20713;-77
2021/06/15 03:06:12;;;;;;;6.00;4.38;;;;;;;13.07;66.25;95649.06;5050368;28;20425;-75
2021/06/15 03:08:39;;;;;;;6.95;4.50;;;;;;;13.13;66.30;95656.63;5052384;28;20060;-76
2021/06/15 03:11:05;;;;;;;5.63;4.75;;;;;;;13.09;66.45;95657.53;5050583;28;20037;-77
2021/06/15 03:13:37;;;;;;;7.55;4.47;;;;;;;13.10;66.44;95657.22;5050153;28;20033;-76
2021/06/15 03:16:05;;;;;;;;;;;;;;;13.10;66.53;95657.22;5032172;28;20495;-76
2021/06/15 03:18:44;;;;;;;5.65;3.95;;;;;;;13.13;66.88;95659.28;5048098;28;20499;-77
2021/06/15 03:21:13;;;;;;;5.75;4.28;;;;;;;13.08;66.58;95655.97;5051934;28;20111;-77
2021/06/15 03:23:52;;;;;;;7.80;4.00;;;;;;;13.10;66.65;95659.13;5070254;28;20551;-76
2021/06/15 03:26:25;;;;;;;6.47;4.82;;;;;;;13.08;66.22;95650.63;5070290;28;20028;-77
2021/06/15 03:28:56;;;;;;;4.93;3.78;;;;;;;13.10;66.33;95657.22;5070032;28;20040;-77
2021/06/15 03:31:23;;;;;;;4.60;3.30;;;;;;;13.04;66.17;95639.75;5069957;28;20430;-76
2021/06/15 03:33:52;;;;;;;5.07;4.30;;;;;;;13.13;66.38;95643.28;5065611;28;20796;-77
2021/06/15 03:36:18;;;;;;;9.02;4.30;;;;;;;13.08;66.72;95632.72;5049653;28;20025;-76
2021/06/15 03:38:47;;;;;;;5.15;4.07;;;;;;;13.09;66.48;95628.16;5051825;28;20082;-76
2021/06/15 03:41:14;;;;;;;4.35;3.97;;;;;;;13.31;66.55;95651.38;5050028;28;20395;-77
2021/06/15 03:43:45;;;;;;;4.03;3.72;;;;;;;13.14;66.02;95615.47;5049266;28;20502;-75
2021/06/15 03:46:12;;;;;;;6.13;4.13;;;;;;;13.38;66.06;95639.16;5049792;28;20107;-77
2021/06/15 03:48:40;;;;;;;6.63;3.70;;;;;;;13.38;66.08;95623.13;5049303;28;20033;-76
2021/06/15 03:51:10;;;;;;;3.60;3.30;;;;;;;13.48;65.77;95624.75;5033764;28;20045;-78
2021/06/15 03:53:37;;;;;;;6.70;3.80;;;;;;;13.70;65.86;95646.00;5049567;28;20041;-77
2021/06/15 03:56:04;;;;;;;5.75;3.55;;;;;;;13.76;65.40;95654.69;5049957;28;20041;-78
2021/06/15 03:58:32;;;;;;;3.67;3.38;;;;;;;13.63;65.32;95624.31;5031937;28;20036;-77
2021/06/15 04:00:59;;;;;;;4.95;3.80;;;;;;;13.75;65.34;95643.19;5049912;28;20068;-76
2021/06/15 04:03:26;;;;;;;5.45;3.42;;;;;;;14.09;64.93;95654.28;5049515;28;20025;-77
2021/06/15 04:05:54;;;;;;;5.07;3.33;;;;;;;14.50;64.03;95635.09;5060278;28;20093;-77
2021/06/15 04:08:22;;;;;;;4.75;3.20;;;;;;;14.94;62.67;95625.88;5052067;28;20033;-77
2021/06/15 04:10:52;;;;;;;3.88;2.45;;;;;;;15.49;61.39;95624.28;5069880;28;20033;-77
2021/06/15 04:13:20;;;;;;;3.40;2.78;;;;;;;16.13;59.52;95652.81;5069886;28;20038;-77
2021/06/15 04:15:47;;;;;;;3.35;3.03;;;;;;;16.46;57.76;95637.53;5069408;28;20750;-77
2021/06/15 04:18:15;;;;;;;4.70;2.85;;;;;;;16.96;57.41;95654.66;5051828;28;20031;-77
2021/06/15 04:20:42;;;;;;;3.03;2.67;;;;;;;17.33;55.94;95652.84;5053631;28;20631;-77
2021/06/15 04:23:10;;;;;;;3.30;2.65;;;;;;;17.64;54.47;95634.25;5049307;28;20025;-77
2021/06/15 04:25:41;;;;;;;5.07;2.70;;;;;;;17.79;53.96;95613.97;5049615;28;20195;-76
2021/06/15 04:28:07;;;;;;;3.83;2.40;;;;;;;18.00;52.66;95604.97;5052061;28;20044;-77
2021/06/15 04:30:36;;;;;;;3.63;2.70;;;;;;;18.49;52.38;95637.97;5053273;28;20057;-77
2021/06/15 04:33:06;;;;;;;3.47;2.50;;;;;;;18.71;51.23;95647.44;5054936;28;20021;-78
2021/06/15 04:35:37;;;;;;;4.57;2.75;;;;;;;18.77;50.84;95642.59;5052421;28;20037;-78
2021/06/15 04:38:08;;;;;;;3.30;2.90;;;;;;;18.91;51.01;95616.78;5038629;28;20372;-77
2021/06/15 04:40:41;;;;;;;4.97;2.38;;;;;;;19.26;50.39;95645.81;5043174;28;20518;-78
2021/06/15 04:43:30;;;;;;;2.75;2.20;;;;;;;19.49;49.72;95645.97;5052312;28;20041;-77
2021/06/15 04:46:05;;;;;;;5.85;2.55;;;;;;;19.75;49.29;95656.28;5052832;28;20092;-77
2021/06/15 04:48:33;;;;;;;3.22;2.50;;;;;;;19.93;49.35;95657.47;5052901;28;20043;-78
2021/06/15 04:51:02;;;;;;;2.97;2.60;;;;;;;20.01;49.28;95642.22;5027151;28;20030;-72
2021/06/15 04:53:31;;;;;;;3.55;2.30;;;;;;;19.69;48.11;95574.00;5033901;28;20037;-77
2021/06/15 04:56:00;;;;;;;5.13;2.28;;;;;;;20.20;47.36;95636.06;5052079;28;20052;-76
2021/06/15 04:58:27;;;;;;;3.60;2.30;;;;;;;20.29;47.11;95652.09;5052271;28;20037;-70
2021/06/15 05:00:53;;;;;;;3.33;2.53;;;;;;;20.08;47.25;95611.91;5047904;28;20041;-73
2021/06/15 05:03:19;;;;;;;4.55;2.70;;;;;;;19.94;47.42;95610.44;5052818;28;20382;-76
2021/06/15 05:05:49;;;;;;;3.60;2.55;;;;;;;20.11;47.69;95657.09;5050230;28;20087;-68
2021/06/15 05:08:20;;;;;;;2.78;2.40;;;;;;;19.87;48.50;95655.41;5051036;28;20037;-76
2021/06/15 05:10:46;;;;;;;5.17;2.53;;;;;;;20.23;48.40;95657.00;5051505;28;20044;-71
2021/06/15 05:13:12;;;;;;;3.88;2.60;;;;;;;20.22;48.11;95623.00;5030364;28;20041;-68
2021/06/15 05:15:44;;;;;;;5.18;3.05;;;;;;;20.29;47.54;95609.66;5049979;28;20030;-88
2021/06/15 05:18:10;;;;;;;4.35;2.88;;;;;;;20.71;48.09;95661.09;5034886;28;20056;-69
2021/06/15 05:20:36;;;;;;;4.80;2.60;;;;;;;20.62;48.39;95625.38;5050041;28;20058;-71
2021/06/15 05:23:40;;;;;;;7.25;2.88;;;;;;;20.73;47.72;95620.22;5035231;28;20119;-71
2021/06/15 05:26:05;;;;;;;5.13;2.55;;;;;;;20.90;47.78;95624.38;5015182;28;20045;-76
2021/06/15 05:28:31;;;;;;;10.18;2.85;;;;;;;20.93;47.66;95624.44;5042689;28;20043;-80
2021/06/15 05:30:56;;;;;;;5.90;2.38;;;;;;;21.18;47.49;95653.84;5032865;28;20040;-73
2021/06/15 05:33:22;;;;;;;3.60;2.38;;;;;;;21.15;47.35;95624.84;5049678;28;20033;-73
2021/06/15 05:35:47;;;;;;;2.92;2.17;;;;;;;21.33;47.32;95642.19;5060790;28;20050;-73
2021/06/15 05:38:15;;;;;;;3.15;2.22;;;;;;;21.40;47.11;95631.50;5069851;28;20024;-69
2021/06/15 05:40:40;;;;;;;3.05;2.28;;;;;;;21.61;46.70;95662.75;5051671;28;20029;-69
2021/06/15 05:43:06;;;;;;;6.25;2.70;;;;;;;21.39;46.00;95623.72;5070164;28;20075;-66
2021/06/15 05:45:31;;;;;;;2.85;2.42;;;;;;;21.68;46.14;95663.66;5053076;28;20102;-85
2021/06/15 05:47:57;;;;;;;5.80;2.17;;;;;;;21.68;46.49;95650.09;5072727;28;20028;-80
2021/06/15 05:50:22;;;;;;;4.85;2.63;;;;;;;21.78;46.27;95657.63;5058306;28;20481;-77
2021/06/15 05:52:48;;;;;;;11.15;2.90;;;;;;;21.76;46.39;95648.31;5048146;28;20052;-82
2021/06/15 05:55:15;;;;;;;3.42;2.75;;;;;;;21.89;45.97;95662.41;5050222;28;20045;-69
2021/06/15 05:57:40;;;;;;;3.63;2.28;;;;;;;21.62;45.97;95631.84;5049834;28;20033;-67
2021/06/15 06:00:08;;;;;;;3.35;2.20;;;;;;;21.80;45.93;95671.59;5051888;28;20028;-74
2021/06/15 06:02:34;;;;;;;3.97;2.30;;;;;;;21.72;46.41;95650.94;5049887;28;20033;-77
2021/06/15 06:10:09;;;;;;;3.80;2.45;;;;;;;21.91;46.76;95669.06;5050652;28;20044;-77
2021/06/15 06:12:35;;;;;;;6.63;2.75;;;;;;;21.99;46.43;95675.34;5050407;28;20025;-77
2021/06/15 06:15:01;;;;;;;3.80;2.40;;;;;;;22.08;46.17;95675.09;5052616;28;20029;-78
2021/06/15 06:17:27;;;;;;;7.63;2.53;;;;;;;21.93;46.31;95665.97;5051243;28;20044;-79
2021/06/15 06:19:53;;;;;;;5.63;2.50;;;;;;;21.80;46.03;95636.41;5033039;28;20033;-79
2021/06/15 06:22:22;;;;;;;3.83;2.33;;;;;;;22.19;46.01;95670.63;5050285;28;20041;-79
2021/06/15 06:24:48;;;;;;;6.18;2.45;;;;;;;22.26;45.39;95674.22;5050349;28;20503;-66
2021/06/15 06:27:13;;;;;;;3.22;2.00;;;;;;;22.28;44.43;95666.53;5048693;28;20463;-66
2021/06/15 06:29:39;;;;;;;3.90;2.10;;;;;;;22.24;43.84;95668.38;5050801;28;20045;-65
2021/06/15 06:32:05;;;;;;;2.63;2.00;;;;;;;22.24;43.81;95665.69;5048750;28;20082;-67
2021/06/15 06:34:31;;;;;;;3.63;2.10;;;;;;;22.26;43.56;95671.50;5048020;28;20114;-67
2021/06/15 06:36:56;;;;;;;3.42;2.03;;;;;;;22.26;43.61;95670.72;5048415;28;20041;-69
2021/06/15 06:39:22;;;;;;;4.93;2.13;;;;;;;21.91;44.20;95657.44;5048570;28;20020;-68
2021/06/15 06:41:47;;;;;;;3.67;2.00;;;;;;;21.98;44.35;95668.38;5050900;28;20055;-67
2021/06/15 06:44:13;;;;;;;2.83;2.17;;;;;;;21.96;44.50;95657.13;5048247;28;20406;-67
2021/06/15 06:46:38;;;;;;;2.13;1.92;;;;;;;22.05;44.33;95676.59;5048626;28;20090;-68
2021/06/15 06:49:03;;;;;;;3.78;2.50;;;;;;;22.14;44.75;95674.44;5048709;28;20079;-66
2021/06/15 06:51:29;;;;;;;6.63;2.60;;;;;;;22.23;44.81;95666.06;5047879;28;20527;-66
2021/06/15 06:53:55;;;;;;;5.18;2.53;;;;;;;22.25;44.18;95671.88;5067808;28;20060;-66
2021/06/15 06:56:20;;;;;;;2.88;2.20;;;;;;;22.17;43.88;95657.47;5050598;28;20048;-66
2021/06/15 06:58:47;;;;;;;4.82;2.33;;;;;;;22.24;44.14;95670.31;5062003;28;20457;-66
2021/06/15 07:01:12;;;;;;;5.80;2.67;;;;;;;22.30;43.52;95661.50;5059842;28;20044;-66
2021/06/15 07:03:38;;;;;;;10.73;2.58;;;;;;;22.22;43.11;95651.72;5047855;28;20398;-65
2021/06/15 07:06:04;;;;;;;5.70;2.50;;;;;;;21.89;44.04;95649.66;5035491;28;20076;-65
2021/06/15 07:08:30;;;;;;;7.05;2.50;;;;;;;22.14;42.47;95657.41;5062006;28;20101;-66
2021/06/15 07:10:55;;;;;;;4.00;2.40;;;;;;;22.21;42.22;95641.22;5068359;28;20037;-66
2021/06/15 07:13:21;;;;;;;8.02;2.22;;;;;;;22.41;43.32;95660.88;5049941;28;20039;-66
2021/06/15 07:15:46;;;;;;;5.10;2.30;;;;;;;22.50;42.63;95647.81;5068240;28;20037;-65
2021/06/15 07:18:12;;;;;;;2.88;2.30;;;;;;;22.50;41.64;95648.59;5068346;28;20017;-63
2021/06/15 07:20:37;;;;;;;2.78;2.30;;;;;;;22.56;41.19;95652.53;5059402;28;20478;-65
2021/06/15 07:23:04;;;;;;;6.15;2.60;;;;;;;22.66;42.02;95656.53;5047933;28;20044;-66
2021/06/15 07:25:29;;;;;;;6.35;2.70;;;;;;;22.78;41.75;95659.03;5029896;28;20094;-65
2021/06/15 07:27:54;;;;;;;6.53;2.80;;;;;;;22.88;41.74;95657.63;5030378;28;20037;-66
2021/06/15 07:30:21;;;;;;;6.72;2.60;;;;;;;22.82;40.87;95650.91;5047935;28;20025;-66
2021/06/15 07:32:47;;;;;;;6.05;2.45;;;;;;;22.94;41.17;95650.72;5049198;28;20033;-67
2021/06/15 07:35:13;;;;;;;7.22;2.97;;;;;;;23.00;39.97;95651.16;5043657;28;20083;-65
2021/06/15 07:37:40;;;;;;;5.55;3.08;;;;;;;23.08;39.95;95655.50;5043529;28;20068;-66
2021/06/15 07:40:08;;;;;;;7.95;3.03;;;;;;;23.10;40.54;95639.63;5047913;28;20490;-65
2021/06/15 07:42:33;;;;;;;9.75;2.85;;;;;;;23.21;39.53;95651.38;5047596;28;20090;-66
2021/06/15 07:44:59;;;;;;;6.72;2.72;;;;;;;23.19;37.61;95650.97;5032164;28;20017;-66
2021/06/15 07:47:24;;;;;;;7.75;2.58;;;;;;;23.27;36.78;95652.59;5030182;28;20033;-67
2021/06/15 07:49:51;;;;;;;6.28;2.25;;;;;;;23.15;36.35;95646.66;5047347;28;20471;-67
2021/06/15 07:52:16;;;;;;;4.97;2.60;;;;;;;23.17;35.14;95641.63;5047248;28;20033;-67
2021/06/15 07:54:42;;;;;;;8.32;2.17;;;;;;;23.08;36.22;95647.34;5029918;28;20068;-67
2021/06/15 07:57:09;;;;;;;5.05;2.47;;;;;;;23.31;34.63;95652.63;5049699;28;20398;-67
2021/06/15 07:59:34;;;;;;;3.95;2.22;;;;;;;23.40;36.00;95644.97;5030055;28;20051;-67
2021/06/15 08:02:00;;;;;;;4.50;2.20;;;;;;;23.56;35.00;95650.94;5048620;28;20050;-66
2021/06/15 08:04:26;;;;;;;2.30;2.00;;;;;;;23.37;33.23;95634.06;5051243;28;20048;-66
2021/06/15 08:06:51;;;;;;;3.95;1.85;;;;;;;23.60;33.20;95659.13;5055464;28;20036;-66
2021/06/15 08:09:16;;;;;;;2.47;1.90;;;;;;;23.74;33.12;95656.53;5071697;28;20028;-67
2021/06/15 08:11:41;;;;;;;3.17;2.00;;;;;;;23.81;32.94;95640.31;5073465;28;20032;-67
2021/06/15 08:14:07;;;;;;;4.28;2.00;;;;;;;23.66;32.62;95640.56;5071112;28;20051;-67
2021/06/15 08:16:32;;;;;;;3.65;2.00;;;;;;;23.85;32.96;95648.44;5071503;28;20409;-66
2021/06/15 08:18:58;;;;;;;8.38;2.20;;;;;;;23.80;31.63;95646.91;5071393;28;20048;-68
2021/06/15 08:21:23;;;;;;;5.38;2.25;;;;;;;23.90;31.58;95648.09;5056594;28;20025;-66
2021/06/15 08:23:48;;;;;;;2.33;2.13;;;;;;;23.92;31.25;95623.28;5052043;28;20393;-66
2021/06/15 08:26:14;;;;;;;3.95;2.05;;;;;;;24.15;32.01;95648.28;5071275;28;20072;-66
2021/06/15 08:28:39;;;;;;;8.15;2.40;;;;;;;24.12;33.10;95641.69;5071306;28;20052;-68
2021/06/15 08:31:05;;;;;;;4.65;2.20;;;;;;;24.10;32.17;95643.97;5071283;28;20036;-66
2021/06/15 08:33:30;;;;;;;6.32;2.67;;;;;;;24.06;32.44;95640.47;5070746;28;20029;-67
2021/06/15 08:35:56;;;;;;;4.95;2.58;;;;;;;24.32;32.92;95647.63;5044700;28;20423;-68
2021/06/15 08:38:21;;;;;;;7.60;2.63;;;;;;;24.35;33.98;95644.16;5051194;28;20124;-66
2021/06/15 08:40:48;;;;;;;7.40;2.28;;;;;;;24.40;31.32;95634.84;5051183;28;20089;-68
2021/06/15 08:43:14;;;;;;;7.22;2.45;;;;;;;24.59;31.27;95636.50;5050709;28;20147;-67
2021/06/15 08:45:41;;;;;;;6.97;2.50;;;;;;;24.60;31.22;95635.34;5051224;28;20432;-67
2021/06/15 08:48:07;;;;;;;5.95;2.63;;;;;;;24.74;32.87;95643.56;5035046;28;20079;-68
2021/06/15 08:50:32;;;;;;;6.10;2.90;;;;;;;24.79;33.67;95635.03;5050610;28;20048;-66
2021/06/15 08:52:58;;;;;;;7.13;2.90;;;;;;;24.83;34.28;95644.00;5050278;28;20044;-67
2021/06/15 08:55:30;;;;;;;7.15;2.90;;;;;;;24.87;34.56;95644.75;5050882;28;20099;-67
2021/06/15 08:58:28;;;;;;;5.78;3.22;;;;;;;24.63;35.07;95637.31;5050912;28;20404;-67
2021/06/15 09:00:53;;;;;;;5.00;2.83;;;;;;;24.56;34.94;95653.56;5050850;28;20029;-67
2021/06/15 09:03:19;;;;;;;6.07;2.88;;;;;;;24.78;34.97;95641.63;5050265;28;20036;-67
2021/06/15 09:05:44;;;;;;;5.57;3.13;;;;;;;24.82;34.15;95622.59;5052403;28;20021;-67
2021/06/15 09:08:11;;;;;;;4.25;2.47;;;;;;;24.96;33.50;95654.53;5062184;28;20032;-66
2021/06/15 09:10:43;;;;;;;6.80;2.45;;;;;;;25.25;33.54;95644.53;5052588;28;20032;-66
2021/06/15 09:13:37;;;;;;;7.38;2.53;;;;;;;25.45;33.59;95644.94;5069708;28;20056;-66
2021/06/15 09:16:19;;;;;;;5.25;2.20;;;;;;;25.45;32.46;95643.00;5070671;28;20037;-66
2021/06/15 09:18:45;;;;;;;10.63;2.72;;;;;;;25.24;32.58;95651.91;5070577;28;20573;-67
2021/06/15 09:21:11;;;;;;;5.80;3.00;;;;;;;25.00;32.74;95647.16;5061582;28;20078;-66
2021/06/15 09:23:38;;;;;;;10.25;2.80;;;;;;;24.22;34.14;95651.06;5049742;28;20064;-66
2021/06/15 09:26:05;;;;;;;4.15;2.58;;;;;;;24.72;32.23;95650.53;5050383;28;20080;-67
2021/06/15 09:28:32;;;;;;;5.75;2.47;;;;;;;24.77;32.32;95621.03;5032502;28;20045;-66
2021/06/15 09:31:09;;;;;;;4.97;2.22;;;;;;;24.34;32.04;95650.72;5050150;28;20490;-67
2021/06/15 09:33:46;;;;;;;5.75;3.03;;;;;;;24.44;32.77;95635.66;5049637;28;20033;-67
2021/06/15 09:36:14;;;;;;;5.53;3.22;;;;;;;25.05;32.57;95649.50;5049447;28;20032;-65
2021/06/15 09:39:12;;;;;;;5.40;2.35;;;;;;;25.38;32.38;95640.25;5051789;28;20021;-66
2021/06/15 09:41:44;;;;;;;4.13;2.47;;;;;;;25.61;31.85;95639.88;5016766;28;20057;-67
2021/06/15 09:44:29;;;;;;;4.38;2.50;;;;;;;25.55;31.69;95639.50;5049550;28;20584;-67
2021/06/15 09:46:59;;;;;;;6.53;2.58;;;;;;;25.62;31.13;95644.16;5049924;28;20045;-67
2021/06/15 09:49:39;;;;;;;6.50;2.53;;;;;;;25.70;29.34;95643.00;5049979;28;20032;-67
2021/06/15 09:52:10;;;;;;;7.80;2.67;;;;;;;25.25;29.36;95639.06;5052162;28;20044;-67
2021/06/15 09:54:37;;;;;;;;;;;;;;;24.52;30.19;95652.81;5054856;28;20041;-67
2021/06/15 09:57:03;;;;;;;4.65;2.20;;;;;;;24.24;30.96;95635.13;5051511;28;19913;-67
2021/06/15 09:59:28;;;;;;;4.82;2.30;;;;;;;24.85;30.39;95633.50;5049803;28;20033;-67
2021/06/15 10:01:56;;;;;;;4.75;2.67;;;;;;;25.35;30.66;95633.66;5049865;28;20132;-67
2021/06/15 10:04:23;;;;;;;4.35;2.00;;;;;;;25.65;31.03;95629.78;5049420;28;20132;-67
2021/06/15 10:06:54;;;;;;;2.47;1.77;;;;;;;25.21;29.75;95639.06;5049139;28;20036;-67
2021/06/15 10:09:34;;;;;;;4.95;2.28;;;;;;;24.90;30.45;95651.38;5049372;28;20040;-66
2021/06/15 10:12:08;;;;;;;2.92;2.20;;;;;;;24.77;29.86;95642.81;5051389;28;20021;-67
2021/06/15 10:14:37;;;;;;;2.65;2.17;;;;;;;25.42;28.81;95641.03;5031608;28;20124;-67
2021/06/15 10:17:03;;;;;;;4.85;2.00;;;;;;;25.69;28.09;95641.44;5048901;28;20099;-66
2021/06/15 10:19:29;;;;;;;2.92;2.30;;;;;;;25.88;29.04;95627.44;5031318;28;20063;-66
2021/06/15 10:21:56;;;;;;;2.10;1.83;;;;;;;25.16;28.26;95639.44;5030503;28;20519;-66
2021/06/15 10:24:23;;;;;;;4.30;1.52;;;;;;;25.37;28.31;95642.19;5048435;28;20120;-66
2021/06/15 10:26:49;;;;;;;5.53;2.60;;;;;;;25.70;28.25;95620.44;5050748;28;20021;-67
2021/06/15 10:29:16;;;;;;;3.67;1.95;;;;;;;25.97;27.95;95629.00;5048999;28;20102;-66
2021/06/15 10:31:44;;;;;;;5.10;2.35;;;;;;;26.22;28.39;95628.97;5031054;28;20036;-65
2021/06/15 10:34:10;;;;;;;3.00;1.95;;;;;;;26.18;27.87;95639.88;5048589;28;20398;-66
2021/06/15 10:36:39;;;;;;;2.28;1.70;;;;;;;26.23;26.99;95635.97;5047668;28;20037;-66
2021/06/15 10:39:06;;;;;;;2.42;1.77;;;;;;;25.66;26.91;95632.09;5051198;28;20023;-66
2021/06/15 10:41:32;;;;;;;4.00;1.83;;;;;;;25.37;27.16;95627.81;5048999;28;20040;-65
2021/06/15 10:43:59;;;;;;;5.60;2.03;;;;;;;25.58;28.42;95630.53;5048327;28;20429;-67
2021/06/15 10:46:32;;;;;;;3.90;1.70;;;;;;;25.90;27.53;95627.06;5048769;28;20037;-66
2021/06/15 10:49:04;;;;;;;2.38;1.80;;;;;;;26.24;27.17;95621.94;5048671;28;20541;-67
2021/06/15 10:51:31;;;;;;;4.13;2.08;;;;;;;25.96;28.19;95625.50;5048185;28;20021;-67
2021/06/15 10:54:04;;;;;;;3.67;1.90;;;;;;;25.38;28.40;95632.06;5050299;28;20119;-70
2021/06/15 10:56:33;;;;;;;4.55;1.80;;;;;;;25.40;28.26;95624.31;5068372;28;20109;-69
2021/06/15 10:59:06;;;;;;;5.75;2.03;;;;;;;25.70;28.07;95615.00;5050455;28;20110;-69
2021/06/15 11:01:39;;;;;;;2.75;1.73;;;;;;;25.87;27.56;95625.13;5057073;28;20123;-68
2021/06/15 11:04:10;;;;;;;3.47;1.70;;;;;;;25.98;27.42;95625.09;5055592;28;20490;-70
2021/06/15 11:06:35;;;;;;;4.03;1.63;;;;;;;26.11;25.91;95620.81;5058458;28;20563;-69
2021/06/15 11:09:03;;;;;;;3.45;1.60;;;;;;;26.44;25.86;95628.53;5041869;28;20033;-70
2021/06/15 11:11:31;;;;;;;5.07;1.45;;;;;;;26.01;26.81;95630.56;5049193;28;20043;-69
2021/06/15 11:14:04;;;;;;;2.10;1.52;;;;;;;25.62;26.31;95625.88;5067941;28;20036;-70
2021/06/15 11:16:55;;;;;;;2.78;1.73;;;;;;;25.97;26.48;95620.81;5068280;28;20051;-69
2021/06/15 11:19:21;;;;;;;3.70;1.73;;;;;;;26.33;26.36;95630.50;5068024;28;20053;-71
2021/06/15 11:21:48;;;;;;;2.15;1.73;;;;;;;26.95;26.17;95621.69;5057164;28;20060;-71
2021/06/15 11:24:32;;;;;;;1.98;1.70;;;;;;;26.92;26.00;95627.97;5047737;28;20052;-70
2021/06/15 11:27:27;;;;;;;1.90;1.65;;;;;;;26.30;25.61;95630.50;5050212;28;20171;-70
2021/06/15 11:29:59;;;;;;;4.97;1.73;;;;;;;26.52;25.21;95626.56;5044631;28;20051;-71
2021/06/15 11:32:28;;;;;;;;;;;;;;;26.93;25.34;95623.28;5048263;28;20128;-70
2021/06/15 11:34:53;;;;;;;3.25;1.77;;;;;;;27.06;24.11;95615.41;5047980;28;19921;-70
2021/06/15 11:37:20;;;;;;;2.20;1.60;;;;;;;27.17;23.88;95613.41;5048982;28;20580;-70
2021/06/15 11:39:47;;;;;;;2.42;1.67;;;;;;;26.68;24.78;95618.72;5052282;28;20029;-71
2021/06/15 11:42:29;;;;;;;2.10;1.50;;;;;;;27.25;25.14;95614.91;5052019;28;20029;-71
2021/06/15 11:45:05;;;;;;;2.17;1.40;;;;;;;26.90;24.92;95616.66;5035908;28;20497;-70
2021/06/15 11:47:47;;;;;;;3.53;1.60;;;;;;;27.35;23.78;95616.81;5052174;28;20041;-71